createdAt,value
2022-09-15T00:02:22.116Z,13.20
2022-09-15T00:04:48.668Z,13.30
2022-09-15T00:07:15.782Z,13.40
2022-09-15T00:09:42.589Z,13.50
2022-09-15T00:12:09.173Z,13.50
2022-09-15T00:14:35.903Z,13.50
2022-09-15T00:17:02.396Z,13.60
2022-09-15T00:19:28.860Z,13.60
2022-09-15T00:21:55.286Z,13.50
2022-09-15T00:24:22.989Z,13.50
2022-09-15T00:26:49.515Z,13.50
2022-09-15T00:29:15.983Z,13.40
2022-09-15T00:31:42.391Z,13.40
2022-09-15T00:34:12.072Z,13.30
2022-09-15T00:36:38.660Z,13.20
2022-09-15T00:39:05.533Z,13.10
2022-09-15T00:41:31.970Z,13.10
2022-09-15T00:44:18.223Z,13.00
2022-09-15T00:47:15.290Z,12.90
2022-09-15T00:49:40.317Z,12.90
2022-09-15T00:52:16.132Z,12.80
2022-09-15T00:55:03.786Z,12.70
2022-09-15T00:57:37.016Z,12.60
2022-09-15T01:00:08.351Z,12.60
2022-09-15T01:02:35.770Z,12.50
2022-09-15T01:05:05.574Z,12.50
2022-09-15T01:07:40.143Z,12.40
2022-09-15T01:10:12.284Z,12.40
2022-09-15T01:12:41.483Z,12.30
2022-09-15T01:15:08.782Z,12.30
2022-09-15T01:17:45.432Z,12.20
2022-09-15T01:20:56.349Z,12.10
2022-09-15T01:23:40.920Z,12.00
2022-09-15T01:26:34.502Z,12.00
2022-09-15T01:29:39.067Z,12.00
2022-09-15T01:32:48.296Z,11.90
2022-09-15T01:35:33.770Z,11.90
2022-09-15T01:38:24.742Z,11.80
2022-09-15T01:41:02.049Z,11.70
2022-09-15T01:43:29.704Z,11.70
2022-09-15T01:45:58.680Z,11.70
2022-09-15T01:48:28.204Z,11.70
2022-09-15T01:50:57.762Z,11.70
2022-09-15T01:53:24.580Z,11.80
2022-09-15T01:56:05.151Z,11.70
2022-09-15T01:58:32.800Z,11.70
2022-09-15T02:01:05.772Z,11.60
2022-09-15T02:03:51.479Z,11.50
2022-09-15T02:06:40.771Z,11.40
2022-09-15T02:09:17.958Z,11.40
2022-09-15T02:12:03.656Z,11.40
2022-09-15T02:14:55.907Z,11.40
2022-09-15T02:17:23.892Z,11.40
2022-09-15T02:19:57.396Z,11.30
2022-09-15T02:22:33.085Z,11.20
2022-09-15T02:25:07.180Z,11.20
2022-09-15T02:27:37.817Z,11.20
2022-09-15T02:30:09.490Z,11.20
2022-09-15T02:32:38.774Z,11.20
2022-09-15T02:35:08.330Z,11.10
2022-09-15T02:37:37.354Z,11.10
2022-09-15T02:40:05.860Z,11.10
2022-09-15T02:42:33.524Z,11.30
2022-09-15T02:45:00.772Z,11.30
2022-09-15T02:47:28.516Z,11.30
2022-09-15T02:49:55.663Z,11.30
2022-09-15T02:52:24.302Z,11.20
2022-09-15T02:54:50.720Z,11.20
2022-09-15T02:57:17.226Z,11.10
2022-09-15T03:00:04.392Z,11.00
2022-09-15T03:02:30.990Z,10.90
2022-09-15T03:04:57.540Z,11.00
2022-09-15T03:07:25.021Z,10.90
2022-09-15T03:09:51.656Z,10.90
2022-09-15T03:12:18.099Z,10.80
2022-09-15T03:14:45.347Z,10.80
2022-09-15T03:17:12.713Z,10.70
2022-09-15T03:19:39.124Z,10.80
2022-09-15T03:22:05.628Z,10.70
2022-09-15T03:24:32.076Z,10.60
2022-09-15T03:26:59.763Z,10.70
2022-09-15T03:29:26.269Z,10.60
2022-09-15T03:31:52.790Z,10.60
2022-09-15T03:34:20.341Z,10.60
2022-09-15T03:36:46.847Z,10.50
2022-09-15T03:39:13.404Z,10.50
2022-09-15T03:41:39.831Z,10.50
2022-09-15T03:44:06.242Z,10.40
2022-09-15T03:46:32.934Z,10.40
2022-09-15T03:48:59.348Z,10.30
2022-09-15T03:51:25.786Z,10.30
2022-09-15T03:53:52.422Z,10.40
2022-09-15T03:56:26.047Z,10.30
2022-09-15T03:58:53.314Z,10.40
2022-09-15T04:01:21.155Z,10.30
2022-09-15T04:03:51.150Z,10.20
2022-09-15T04:06:19.404Z,10.20
2022-09-15T04:08:46.075Z,10.30
2022-09-15T04:11:13.874Z,10.20
2022-09-15T04:13:41.980Z,10.30
2022-09-15T04:16:11.972Z,10.40
2022-09-15T04:18:38.427Z,10.50
2022-09-15T04:21:07.480Z,10.60
2022-09-15T04:23:35.648Z,10.60
2022-09-15T04:26:05.472Z,10.50
2022-09-15T04:28:35.995Z,10.50
2022-09-15T04:31:05.443Z,10.40
2022-09-15T04:33:32.372Z,10.30
2022-09-15T04:36:04.117Z,10.30
2022-09-15T04:38:31.607Z,10.40
2022-09-15T04:41:00.042Z,10.30
2022-09-15T04:43:27.218Z,10.30
2022-09-15T04:45:54.286Z,10.30
2022-09-15T04:48:21.687Z,10.40
2022-09-15T04:50:48.437Z,10.50
2022-09-15T04:53:15.750Z,10.60
2022-09-15T04:55:42.518Z,10.60
2022-09-15T04:58:09.190Z,10.60
2022-09-15T05:00:46.127Z,10.60
2022-09-15T05:03:14.046Z,10.60
2022-09-15T05:05:42.356Z,10.70
2022-09-15T05:08:08.813Z,10.80
2022-09-15T05:10:35.482Z,10.80
2022-09-15T05:13:01.890Z,10.90
2022-09-15T05:15:29.750Z,11.00
2022-09-15T05:17:56.158Z,11.10
2022-09-15T05:20:22.896Z,11.20
2022-09-15T05:22:49.308Z,11.20
2022-09-15T05:25:16.903Z,11.30
2022-09-15T05:27:43.499Z,11.40
2022-09-15T05:30:35.903Z,11.60
2022-09-15T05:32:57.091Z,11.70
2022-09-15T05:35:23.625Z,11.80
2022-09-15T05:37:50.324Z,11.90
2022-09-15T05:40:16.890Z,12.00
2022-09-15T05:42:43.336Z,12.10
2022-09-15T05:45:10.259Z,12.20
2022-09-15T05:47:36.746Z,12.20
2022-09-15T05:50:03.232Z,12.30
2022-09-15T05:52:29.687Z,12.30
2022-09-15T05:54:59.132Z,12.30
2022-09-15T05:57:25.866Z,12.50
2022-09-15T05:59:52.395Z,12.50
2022-09-15T06:02:19.046Z,12.40
2022-09-15T06:04:45.595Z,12.60
2022-09-15T06:07:12.371Z,12.60
2022-09-15T06:09:39.319Z,12.90
2022-09-15T06:12:05.994Z,13.00
2022-09-15T06:14:33.640Z,12.90
2022-09-15T06:17:00.079Z,13.90
2022-09-15T06:19:26.505Z,14.00
2022-09-15T06:21:53.998Z,13.60
2022-09-15T06:24:20.458Z,13.90
2022-09-15T06:26:47.214Z,13.70
2022-09-15T06:29:13.757Z,13.80
2022-09-15T06:31:40.474Z,14.00
2022-09-15T06:34:08.569Z,14.00
2022-09-15T06:36:37.588Z,14.10
2022-09-15T06:39:04.597Z,14.20
2022-09-15T06:41:52.485Z,14.10
2022-09-15T06:44:18.376Z,14.30
2022-09-15T06:46:44.887Z,14.30
2022-09-15T06:49:11.312Z,14.30
2022-09-15T06:51:38.076Z,14.30
2022-09-15T06:54:05.602Z,14.20
2022-09-15T06:56:35.866Z,14.30
2022-09-15T06:59:04.435Z,14.50
2022-09-15T07:01:32.280Z,14.40
2022-09-15T07:04:01.197Z,14.60
2022-09-15T07:06:29.357Z,14.70
2022-09-15T07:08:56.649Z,14.80
2022-09-15T07:11:23.183Z,15.00
2022-09-15T07:13:49.999Z,15.30
2022-09-15T07:16:18.189Z,15.00
2022-09-15T07:18:48.689Z,15.10
2022-09-15T07:21:19.897Z,14.90
2022-09-15T07:23:47.544Z,15.20
2022-09-15T07:26:15.007Z,15.40
2022-09-15T07:28:43.896Z,15.60
2022-09-15T07:31:13.343Z,15.30
2022-09-15T07:33:39.820Z,15.40
2022-09-15T07:36:08.043Z,15.40
2022-09-15T07:38:35.182Z,15.10
2022-09-15T07:41:12.496Z,15.20
2022-09-15T07:43:39.528Z,15.10
2022-09-15T07:46:06.216Z,15.10
2022-09-15T07:48:32.960Z,15.30
2022-09-15T07:50:59.951Z,15.60
2022-09-15T07:53:30.590Z,15.80
2022-09-15T07:55:57.647Z,16.10
2022-09-15T07:58:24.805Z,16.40
2022-09-15T08:00:51.290Z,16.50
2022-09-15T08:03:17.919Z,16.70
2022-09-15T08:05:45.822Z,16.40
2022-09-15T08:08:12.874Z,16.80
2022-09-15T08:10:41.067Z,17.50
2022-09-15T08:13:07.625Z,18.30
2022-09-15T08:15:36.987Z,18.00
2022-09-15T08:18:03.757Z,17.60
2022-09-15T08:20:31.441Z,17.00
2022-09-15T08:22:58.143Z,16.80
2022-09-15T08:25:24.581Z,16.70
2022-09-15T08:27:52.711Z,16.60
2022-09-15T08:30:19.121Z,16.60
2022-09-15T08:32:46.852Z,16.70
2022-09-15T08:35:14.922Z,17.00
2022-09-15T08:37:41.664Z,17.20
2022-09-15T08:40:16.841Z,17.30
2022-09-15T08:42:46.753Z,17.60
2022-09-15T08:45:23.222Z,17.40
2022-09-15T08:47:55.964Z,17.50
2022-09-15T08:50:33.893Z,17.50
2022-09-15T08:53:06.899Z,17.50
2022-09-15T08:55:41.476Z,17.60
2022-09-15T08:58:15.100Z,17.40
2022-09-15T09:00:45.668Z,17.80
2022-09-15T09:03:41.023Z,18.10
2022-09-15T09:06:21.184Z,18.80
2022-09-15T09:09:20.271Z,19.30
2022-09-15T09:12:29.545Z,19.20
2022-09-15T09:15:16.049Z,19.90
2022-09-15T09:18:19.641Z,20.00
2022-09-15T09:21:03.041Z,21.60
2022-09-15T09:23:32.945Z,21.80
2022-09-15T09:26:01.874Z,22.90
2022-09-15T09:28:37.982Z,24.90
2022-09-15T09:31:07.800Z,24.20
2022-09-15T09:33:47.265Z,26.50
2022-09-15T09:36:14.559Z,26.20
2022-09-15T09:38:45.161Z,28.40
2022-09-15T09:41:17.805Z,27.80
2022-09-15T09:43:47.381Z,26.10
2022-09-15T09:46:16.327Z,25.50
2022-09-15T09:48:56.343Z,25.30
2022-09-15T09:51:37.775Z,24.00
2022-09-15T09:54:12.656Z,22.90
2022-09-15T09:56:39.778Z,22.90
2022-09-15T09:59:28.331Z,21.90
2022-09-15T10:02:20.644Z,22.50
2022-09-15T10:05:06.745Z,22.70
2022-09-15T10:07:34.445Z,23.40
2022-09-15T10:10:02.167Z,21.50
2022-09-15T10:12:32.007Z,21.80
2022-09-15T10:15:02.468Z,21.40
2022-09-15T10:17:46.772Z,23.10
2022-09-15T10:20:28.171Z,23.80
2022-09-15T10:23:09.772Z,24.00
2022-09-15T10:25:58.152Z,25.30
2022-09-15T10:28:27.240Z,24.10
2022-09-15T10:31:13.675Z,23.10
2022-09-15T10:33:44.969Z,23.30
2022-09-15T10:36:13.059Z,22.00
2022-09-15T10:38:41.806Z,20.90
2022-09-15T10:41:27.809Z,21.20
2022-09-15T10:44:07.989Z,21.30
2022-09-15T10:47:08.815Z,22.10
2022-09-15T10:50:13.797Z,23.20
2022-09-15T10:53:06.067Z,23.80
2022-09-15T10:55:52.776Z,24.20
2022-09-15T10:58:47.295Z,24.50
2022-09-15T11:01:31.249Z,22.60
2022-09-15T11:04:31.333Z,21.30
2022-09-15T11:07:09.240Z,21.50
2022-09-15T11:09:45.605Z,21.60
2022-09-15T11:12:39.873Z,21.40
2022-09-15T11:15:30.859Z,21.20
2022-09-15T11:18:08.748Z,20.90
2022-09-15T11:20:41.765Z,20.40
2022-09-15T11:23:20.096Z,20.00
2022-09-15T11:25:54.928Z,20.60
2022-09-15T11:28:40.477Z,20.00
2022-09-15T11:31:16.639Z,19.30
2022-09-15T11:34:11.769Z,19.80
2022-09-15T11:36:47.213Z,20.10
2022-09-15T11:39:23.951Z,19.80
2022-09-15T11:42:01.101Z,19.70
2022-09-15T11:44:38.079Z,19.30
2022-09-15T11:47:30.435Z,18.80
2022-09-15T11:50:03.432Z,18.70
2022-09-15T11:53:18.183Z,18.90
2022-09-15T11:56:13.822Z,19.10
2022-09-15T11:59:01.597Z,19.00
2022-09-15T12:01:35.568Z,19.10
2022-09-15T12:04:31.841Z,19.50
2022-09-15T12:07:06.235Z,20.70
2022-09-15T12:09:35.377Z,21.40
2022-09-15T12:12:08.404Z,21.50
2022-09-15T12:14:44.814Z,21.60
2022-09-15T12:17:29.702Z,21.20
2022-09-15T12:20:07.537Z,21.10
2022-09-15T12:22:48.855Z,21.20
2022-09-15T12:25:29.309Z,21.50
2022-09-15T12:28:26.965Z,22.10
2022-09-15T12:31:25.634Z,21.90
2022-09-15T12:33:54.674Z,22.00
2022-09-15T12:36:36.678Z,21.50
2022-09-15T12:39:06.155Z,20.40
2022-09-15T12:41:33.172Z,20.10
2022-09-15T12:44:14.409Z,19.70
2022-09-15T12:46:41.310Z,19.40
2022-09-15T12:49:17.886Z,19.60
2022-09-15T12:51:49.811Z,19.70
2022-09-15T12:54:27.127Z,20.30
2022-09-15T12:56:54.627Z,20.60
2022-09-15T12:59:27.885Z,21.10
2022-09-15T13:01:55.924Z,21.60
2022-09-15T13:04:40.849Z,22.10
2022-09-15T13:07:16.204Z,22.10
2022-09-15T13:09:56.756Z,21.50
2022-09-15T13:12:26.431Z,21.50
2022-09-15T13:14:55.853Z,21.60
2022-09-15T13:17:25.507Z,21.00
2022-09-15T13:20:00.067Z,21.20
2022-09-15T13:22:32.015Z,21.50
2022-09-15T13:25:16.866Z,21.10
2022-09-15T13:27:45.786Z,21.00
2022-09-15T13:30:30.947Z,20.90
2022-09-15T13:33:13.460Z,20.90
2022-09-15T13:36:00.548Z,21.30
2022-09-15T13:39:07.952Z,22.10
2022-09-15T13:42:05.826Z,22.30
2022-09-15T13:44:46.357Z,21.70
2022-09-15T13:47:33.479Z,22.10
2022-09-15T13:50:18.590Z,22.20
2022-09-15T13:53:33.591Z,21.10
2022-09-15T13:56:05.914Z,20.70
2022-09-15T14:01:22.897Z,21.30
2022-09-15T14:03:53.651Z,21.90
2022-09-15T14:06:25.834Z,21.40
2022-09-15T14:08:57.032Z,21.10
2022-09-15T14:11:28.646Z,21.30
2022-09-15T14:13:57.057Z,21.00
2022-09-15T14:16:34.936Z,21.40
2022-09-15T14:19:05.925Z,21.90
2022-09-15T14:21:34.476Z,21.70
2022-09-15T14:24:06.328Z,20.90
2022-09-15T14:26:35.587Z,21.10
2022-09-15T14:29:07.045Z,20.60
2022-09-15T14:31:39.294Z,20.20
2022-09-15T14:34:09.727Z,20.10
2022-09-15T14:36:36.267Z,20.00
2022-09-15T14:39:08.961Z,19.30
2022-09-15T14:41:36.612Z,19.40
2022-09-15T14:47:25.366Z,19.30
2022-09-15T14:50:09.719Z,19.30
2022-09-15T14:52:40.842Z,19.40
2022-09-15T14:55:18.872Z,19.20
2022-09-15T14:57:55.505Z,19.30
2022-09-15T15:00:27.329Z,19.10
2022-09-15T15:03:08.986Z,19.00
2022-09-15T15:05:40.593Z,19.00
2022-09-15T15:08:10.060Z,18.90
2022-09-15T15:10:37.107Z,18.80
2022-09-15T15:13:09.498Z,18.90
2022-09-15T15:15:37.868Z,18.80
2022-09-15T15:18:07.360Z,18.10
2022-09-15T15:20:33.792Z,18.20
2022-09-15T15:23:32.822Z,17.90
2022-09-15T15:26:26.852Z,18.00
2022-09-15T15:28:53.537Z,17.80
2022-09-15T15:31:26.679Z,17.50
2022-09-15T15:33:59.703Z,17.60
2022-09-15T15:36:28.467Z,17.50
2022-09-15T15:38:57.497Z,17.40
2022-09-15T15:41:27.183Z,17.60
2022-09-15T15:44:03.119Z,17.50
2022-09-15T15:46:53.234Z,17.40
2022-09-15T15:49:21.287Z,17.20
2022-09-15T15:51:48.804Z,17.20
2022-09-15T15:54:15.268Z,17.10
2022-09-15T15:56:41.866Z,17.10
2022-09-15T15:59:12.492Z,17.10
2022-09-15T16:01:39.544Z,17.40
2022-09-15T16:04:10.982Z,17.30
2022-09-15T16:06:37.763Z,16.80
2022-09-15T16:09:05.880Z,16.80
2022-09-15T16:11:32.335Z,16.80
2022-09-15T16:13:59.289Z,16.70
2022-09-15T16:16:27.501Z,16.80
2022-09-15T16:18:54.239Z,16.60
2022-09-15T16:21:37.085Z,16.30
2022-09-15T16:24:05.175Z,16.30
2022-09-15T16:26:31.722Z,16.30
2022-09-15T16:28:59.530Z,16.10
2022-09-15T16:31:25.998Z,16.00
2022-09-15T16:33:52.532Z,16.20
2022-09-15T16:36:19.124Z,16.10
2022-09-15T16:38:45.639Z,16.10
2022-09-15T16:41:18.116Z,16.20
2022-09-15T16:43:45.812Z,16.20
2022-09-15T16:46:13.481Z,16.20
2022-09-15T16:48:42.677Z,16.10
2022-09-15T16:51:29.759Z,16.10
2022-09-15T16:53:57.290Z,16.00
2022-09-15T16:56:23.750Z,15.90
2022-09-15T16:58:54.790Z,15.90
2022-09-15T17:01:25.225Z,15.90
2022-09-15T17:03:54.074Z,15.80
2022-09-15T17:06:21.932Z,15.70
2022-09-15T17:08:48.363Z,15.70
2022-09-15T17:11:17.391Z,15.60
2022-09-15T17:13:44.450Z,15.60
2022-09-15T17:16:13.136Z,15.60
2022-09-15T17:18:39.642Z,15.60
2022-09-15T17:21:06.315Z,15.60
2022-09-15T17:23:37.869Z,15.50
2022-09-15T17:26:09.018Z,15.50
2022-09-15T17:28:36.485Z,15.40
2022-09-15T17:31:06.476Z,15.50
2022-09-15T17:33:33.326Z,15.30
2022-09-15T17:36:00.255Z,15.30
2022-09-15T17:38:27.290Z,15.40
2022-09-15T17:40:57.166Z,15.40
2022-09-15T17:43:27.875Z,15.30
2022-09-15T17:45:54.973Z,15.20
2022-09-15T17:48:22.511Z,15.20
2022-09-15T17:50:50.406Z,15.20
2022-09-15T17:53:26.709Z,15.10
2022-09-15T17:55:55.375Z,15.10
2022-09-15T17:58:23.090Z,15.10
2022-09-15T18:00:50.271Z,15.00
2022-09-15T18:03:33.143Z,15.00
2022-09-15T18:06:03.715Z,14.90
2022-09-15T18:08:30.807Z,14.70
2022-09-15T18:10:57.223Z,14.60
2022-09-15T18:13:30.177Z,14.50
2022-09-15T18:15:58.425Z,14.50
2022-09-15T18:18:26.944Z,14.40
2022-09-15T18:20:55.958Z,14.40
2022-09-15T18:23:27.262Z,14.40
2022-09-15T18:25:54.102Z,14.40
2022-09-15T18:28:20.699Z,14.20
2022-09-15T18:30:48.987Z,14.30
2022-09-15T18:33:17.690Z,14.10
2022-09-15T18:35:44.691Z,14.20
2022-09-15T18:38:11.766Z,14.10
2022-09-15T18:40:38.722Z,14.10
2022-09-15T18:43:05.614Z,14.10
2022-09-15T18:45:32.394Z,14.10
2022-09-15T18:48:01.547Z,14.10
2022-09-15T18:50:28.037Z,14.20
2022-09-15T18:52:54.594Z,14.00
2022-09-15T18:55:22.687Z,14.10
2022-09-15T18:57:49.303Z,14.00
2022-09-15T19:00:18.818Z,14.20
2022-09-15T19:02:45.734Z,14.00
2022-09-15T19:05:15.543Z,14.10
2022-09-15T19:07:43.900Z,14.00
2022-09-15T19:10:14.096Z,14.00
2022-09-15T19:12:40.831Z,14.10
2022-09-15T19:15:11.319Z,14.10
2022-09-15T19:17:39.409Z,14.00
2022-09-15T19:20:08.835Z,14.10
2022-09-15T19:22:35.888Z,14.10
2022-09-15T19:25:02.922Z,14.20
2022-09-15T19:27:31.900Z,14.20
2022-09-15T19:29:58.678Z,14.20
2022-09-15T19:32:25.074Z,14.20
2022-09-15T19:34:51.509Z,14.20
2022-09-15T19:37:20.373Z,14.10
2022-09-15T19:39:48.234Z,14.10
2022-09-15T19:44:41.846Z,14.10
2022-09-15T19:47:08.856Z,14.00
2022-09-15T19:49:36.478Z,14.10
2022-09-15T19:52:02.961Z,14.10
2022-09-15T19:54:30.478Z,14.00
2022-09-15T19:56:57.056Z,14.00
2022-09-15T19:59:28.676Z,14.10
2022-09-15T20:01:56.811Z,14.10
2022-09-15T20:04:23.406Z,14.10
2022-09-15T20:06:49.955Z,14.00
2022-09-15T20:09:16.549Z,14.10
2022-09-15T20:11:45.883Z,14.00
2022-09-15T20:14:12.333Z,13.90
2022-09-15T20:16:38.960Z,13.90
2022-09-15T20:19:06.438Z,13.80
2022-09-15T20:21:49.982Z,13.80
2022-09-15T20:24:17.903Z,13.70
2022-09-15T20:26:44.333Z,13.70
2022-09-15T20:29:10.911Z,13.70
2022-09-15T20:31:37.469Z,13.60
2022-09-15T20:34:03.883Z,13.70
2022-09-15T20:36:36.297Z,13.50
2022-09-15T20:39:04.927Z,13.50
2022-09-15T20:41:31.997Z,13.50
2022-09-15T20:43:58.490Z,13.40
2022-09-15T20:46:27.256Z,13.40
2022-09-15T20:48:56.079Z,13.30
2022-09-15T20:51:28.068Z,13.20
2022-09-15T20:53:56.853Z,13.30
2022-09-15T20:56:25.558Z,13.10
2022-09-15T20:58:53.555Z,13.10
2022-09-15T21:01:25.704Z,13.10
2022-09-15T21:03:53.329Z,13.10
2022-09-15T21:06:22.266Z,12.90
2022-09-15T21:08:50.027Z,12.90
2022-09-15T21:11:19.384Z,12.90
2022-09-15T21:13:48.294Z,13.00
2022-09-15T21:16:18.455Z,13.00
2022-09-15T21:18:45.674Z,13.00
2022-09-15T21:21:17.503Z,13.10
2022-09-15T21:23:56.227Z,13.10
2022-09-15T21:26:25.210Z,13.10
2022-09-15T21:28:52.750Z,13.10
2022-09-15T21:31:24.422Z,13.10
2022-09-15T21:33:52.077Z,13.20
2022-09-15T21:36:22.263Z,13.20
2022-09-15T21:38:51.028Z,13.20
2022-09-15T21:41:20.831Z,13.20
2022-09-15T21:43:48.339Z,13.10
2022-09-15T21:46:20.185Z,13.10
2022-09-15T21:48:48.004Z,13.00
2022-09-15T21:51:23.502Z,12.80
2022-09-15T21:53:52.130Z,12.80
2022-09-15T21:56:18.878Z,12.70
2022-09-15T21:58:45.516Z,12.70
2022-09-15T22:01:23.474Z,12.70
2022-09-15T22:04:05.298Z,12.70
2022-09-15T22:06:34.443Z,12.60
2022-09-15T22:09:03.310Z,12.60
2022-09-15T22:11:29.819Z,12.60
2022-09-15T22:13:56.393Z,12.60
2022-09-15T22:16:24.669Z,12.50
2022-09-15T22:18:51.788Z,12.50
2022-09-15T22:21:20.432Z,12.50
2022-09-15T22:23:48.317Z,12.50
2022-09-15T22:26:21.067Z,12.40
2022-09-15T22:28:47.527Z,12.50
2022-09-15T22:31:15.759Z,12.40
2022-09-15T22:33:44.769Z,12.20
2022-09-15T22:36:26.605Z,12.30
2022-09-15T22:38:56.095Z,12.30
2022-09-15T22:41:25.901Z,12.20
2022-09-15T22:43:53.279Z,12.30
2022-09-15T22:46:20.111Z,12.20
2022-09-15T22:48:47.279Z,12.10
2022-09-15T22:51:14.739Z,12.10
2022-09-15T22:53:41.556Z,12.10
2022-09-15T22:56:14.848Z,12.00
2022-09-15T22:58:43.850Z,12.00
2022-09-15T23:01:16.210Z,12.00
2022-09-15T23:03:47.385Z,12.00
2022-09-15T23:06:14.256Z,12.00
2022-09-15T23:08:41.042Z,12.10
2022-09-15T23:11:12.444Z,12.10
2022-09-15T23:13:39.677Z,12.10
2022-09-15T23:16:07.182Z,12.10
2022-09-15T23:18:34.904Z,12.10
2022-09-15T23:21:04.061Z,12.00
2022-09-15T23:23:30.515Z,12.00
2022-09-15T23:25:57.023Z,11.90
2022-09-15T23:28:23.993Z,11.90
2022-09-15T23:30:55.406Z,11.90
2022-09-15T23:33:22.673Z,11.90
2022-09-15T23:35:50.047Z,11.80
2022-09-15T23:38:18.230Z,11.80
2022-09-15T23:40:45.536Z,11.80
2022-09-15T23:43:14.207Z,11.80
2022-09-15T23:45:41.272Z,11.80
2022-09-15T23:48:08.285Z,11.70
2022-09-15T23:50:35.975Z,11.80
2022-09-15T23:53:02.851Z,11.70
2022-09-15T23:55:30.536Z,11.80
2022-09-15T23:57:56.964Z,11.70
